Terminal Aerodrome Forecast
Issued by NWS

Home | Current Version | Previous Version | Text Only | Print | Product List | Glossary On
Versions: 1 2 3 4 5 6 7 8 9 10 11 12 13 14 15 16 17 18 19 20 21 22 23 24 25 26 27 28 29 30 31
000
FTUS41 KBTV 042337
TAFSLK
TAF
KSLK 042337Z 0500/0524 25006KT P6SM SCT120
     FM050200 24005KT P6SM VCSH BKN080
     FM050400 24004KT P6SM OVC035
     FM051000 25004KT 3SM BR BKN020
     FM051300 25006KT P6SM BKN035
     FM051700 27010G17KT P6SM VCSH BKN035
     FM052300 27007KT P6SM BKN040=

USA.gov is the U.S. government's official web portal to all federal, state and local government web resources and services.